πŸ“Š DonnΓ©es MΓ©tΓ©o - Bordeaux

Total mesures

14,410

TempΓ©rature moyenne

18.9Β°C

Temp. Min/Max

2.9Β° / 42.4Β°

HumiditΓ© moyenne

64.8%

Pression moyenne

1014.7 hPa
enregistrements
ID Date/Heure Temp (Β°C) HumiditΓ© (%) Pression (hPa) Tendance LuminositΓ© (lux) Situation
11510 16/07/2026 17:15 30.4 50.0 1,011.3 β†’ Stable 45,372 conditions-neutrales-ou-non-definies
11509 16/07/2026 16:45 30.8 49.0 1,011.5 β†’ Stable 54,816 conditions-neutrales-ou-non-definies
11508 16/07/2026 16:15 31.0 48.0 1,011.5 β†’ Stable 63,240 conditions-neutrales-ou-non-definies
11507 16/07/2026 15:45 31.6 47.0 1,011.5 β†’ Stable 71,112 confortablement-chaud (approx.)
11506 16/07/2026 15:15 32.1 44.0 1,011.5 β†’ Stable 82,404 confortablement-chaud (approx.)
11505 16/07/2026 14:45 32.2 43.0 1,011.8 β†’ Stable 89,724 confortablement-chaud (approx.)
11504 16/07/2026 14:15 32.4 44.0 1,011.8 β†’ Stable 91,200 confortablement-chaud (approx.)
11503 16/07/2026 13:45 32.8 44.0 1,011.6 β†’ Stable 95,004 confortablement-chaud (approx.)
11502 16/07/2026 13:15 33.8 39.0 1,011.7 β†’ Stable 96,108 chaleur-seche
11501 16/07/2026 12:45 33.7 40.0 1,011.9 β†’ Stable 103,704 confortablement-chaud (approx.)
11500 16/07/2026 12:15 32.9 43.0 1,011.9 β†’ Stable 104,628 confortablement-chaud (approx.)
11499 16/07/2026 11:45 32.3 45.0 1,012.5 β†’ Stable 106,020 confortablement-chaud (approx.)
11498 16/07/2026 11:15 31.6 47.0 1,012.5 β†’ Stable 103,980 confortablement-chaud (approx.)
11497 16/07/2026 10:45 30.4 51.0 1,013.1 β†’ Stable 100,836 confortablement-chaud (approx.)
11496 16/07/2026 10:15 30.3 52.0 1,013.1 β†’ Stable 94,728 confortablement-chaud (approx.)
11495 16/07/2026 09:45 29.1 57.0 1,014.1 β†’ Stable 88,800 confortablement-chaud (approx.)
11494 16/07/2026 09:15 28.2 63.0 1,014.1 β†’ Stable 79,440 confortablement-chaud
11493 16/07/2026 08:45 27.4 66.0 1,014.0 β†’ Stable 71,940 confortablement-chaud
11492 16/07/2026 08:15 26.7 68.0 1,014.0 β†’ Stable 60,924 confortablement-chaud (approx.)
11491 16/07/2026 07:45 25.8 73.0 1,014.3 β†’ Stable 52,128 pluvieux-gris (approx.)
11490 16/07/2026 07:15 24.8 78.0 1,014.3 β†’ Stable 36,852 pluvieux-gris (approx.)
11489 16/07/2026 06:45 24.1 82.0 1,014.3 β†’ Stable 28,152 pluvieux-gris (approx.)
11488 16/07/2026 06:15 23.3 88.0 1,014.3 β†’ Stable 8,244 pluvieux-gris (approx.)
11487 16/07/2026 05:45 22.7 93.0 1,014.1 β†’ Stable 4,728 pluvieux-gris (approx.)
11486 16/07/2026 05:15 22.8 91.0 1,014.1 β†’ Stable 2,220 pluvieux-gris (approx.)
11485 16/07/2026 05:00 22.7 92.0 1,014.1 β†’ Stable 1,020 pluvieux-gris (approx.)
11484 16/07/2026 04:45 22.6 92.0 1,014.2 β†’ Stable 96 pluvieux-gris (approx.)
11483 16/07/2026 04:15 22.8 91.0 1,014.2 β†’ Stable 0 pluvieux-gris (approx.)
11482 16/07/2026 03:45 22.8 91.0 1,014.4 β†’ Stable 0 pluvieux-gris (approx.)
11481 16/07/2026 03:15 22.8 91.0 1,014.4 β†’ Stable 0 pluvieux-gris (approx.)
11480 16/07/2026 03:00 22.8 91.0 1,014.4 β†’ Stable 0 pluvieux-gris (approx.)
11479 16/07/2026 02:45 22.8 91.0 1,014.5 β†’ Stable 0 pluvieux-gris (approx.)
11478 16/07/2026 02:15 22.9 90.0 1,014.5 β†’ Stable 0 pluvieux-gris (approx.)
11477 16/07/2026 01:45 22.9 91.0 1,014.9 β†’ Stable 0 pluvieux-gris (approx.)
11476 16/07/2026 01:15 23.1 89.0 1,014.9 β†’ Stable 0 pluvieux-gris (approx.)
11475 16/07/2026 00:45 23.3 87.0 1,015.1 β†’ Stable 0 pluvieux-gris (approx.)
11474 16/07/2026 00:15 23.5 86.0 1,015.1 β†’ Stable 0 pluvieux-gris (approx.)
11473 15/07/2026 23:45 23.7 85.0 1,015.5 β†’ Stable 0 pluvieux-gris (approx.)
11472 15/07/2026 23:15 24.4 79.0 1,015.5 β†’ Stable 0 pluvieux-gris (approx.)
11471 15/07/2026 22:45 25.0 71.0 1,015.4 β†’ Stable 0 pluvieux-gris (approx.)
11470 15/07/2026 22:15 25.6 68.0 1,015.4 β†’ Stable 0 confortablement-chaud (approx.)
11469 15/07/2026 21:45 25.9 65.0 1,015.0 β†’ Stable 0 confortablement-chaud (approx.)
11468 15/07/2026 21:15 26.4 63.0 1,015.0 β†’ Stable 0 confortablement-chaud (approx.)
11467 15/07/2026 20:45 26.7 60.0 1,014.3 β†’ Stable 0 confortablement-chaud (approx.)
11466 15/07/2026 20:15 27.6 56.0 1,014.3 β†’ Stable 0 confortablement-chaud (approx.)
11465 15/07/2026 19:45 28.2 54.0 1,014.0 β†’ Stable 552 confortablement-chaud (approx.)
11464 15/07/2026 19:15 29.1 52.0 1,014.0 β†’ Stable 6,852 conditions-neutrales-ou-non-definies
11463 15/07/2026 18:45 29.9 46.0 1,013.8 β†’ Stable 14,256 conditions-neutrales-ou-non-definies
11462 15/07/2026 18:15 30.7 45.0 1,013.8 β†’ Stable 25,272 conditions-neutrales-ou-non-definies
11461 15/07/2026 17:45 31.0 45.0 1,013.5 β†’ Stable 34,728 conditions-neutrales-ou-non-definies
11460 15/07/2026 17:15 31.4 47.0 1,013.5 β†’ Stable 45,828 conditions-neutrales-ou-non-definies
11459 15/07/2026 16:45 31.7 47.0 1,013.6 β†’ Stable 55,368 conditions-neutrales-ou-non-definies
11458 15/07/2026 16:15 31.5 49.0 1,013.6 β†’ Stable 66,300 conditions-neutrales-ou-non-definies
11457 15/07/2026 15:45 32.2 46.0 1,012.9 β†’ Stable 74,904 confortablement-chaud (approx.)
11456 15/07/2026 15:15 33.7 41.0 1,012.9 β†’ Stable 81,024 confortablement-chaud (approx.)
11455 15/07/2026 14:45 35.5 33.0 1,013.0 β†’ Stable 86,940 chaleur-seche
11454 15/07/2026 14:15 34.7 33.0 1,013.0 β†’ Stable 83,700 chaleur-seche
11453 15/07/2026 13:45 34.5 34.0 1,013.5 β†’ Stable 87,780 chaleur-seche
11452 15/07/2026 13:15 33.7 33.0 1,013.9 β†’ Stable 97,776 chaleur-seche
11451 15/07/2026 12:45 33.9 32.0 1,014.4 β†’ Stable 100,740 chaleur-seche
11450 15/07/2026 12:15 33.6 34.0 1,014.4 β†’ Stable 104,904 chaleur-seche
11449 15/07/2026 12:00 33.2 35.0 1,014.4 β†’ Stable 106,668 chaleur-seche
11448 15/07/2026 11:45 32.8 36.0 1,014.7 β†’ Stable 106,200 chaleur-seche
11447 15/07/2026 11:15 32.0 39.0 1,014.7 β†’ Stable 103,608 chaleur-seche
11446 15/07/2026 10:45 31.4 40.0 1,014.7 β†’ Stable 100,188 confortablement-chaud (approx.)
11445 15/07/2026 10:15 30.4 45.0 1,014.7 β†’ Stable 78,420 confortablement-chaud (approx.)
11444 15/07/2026 09:45 29.1 50.0 1,015.0 β†’ Stable 71,484 confortablement-chaud (approx.)
11443 15/07/2026 09:15 28.4 55.0 1,015.0 β†’ Stable 64,164 confortablement-chaud (approx.)
11442 15/07/2026 08:45 28.4 54.0 1,014.8 β†’ Stable 64,164 confortablement-chaud (approx.)
11441 15/07/2026 08:15 28.7 49.0 1,014.8 β†’ Stable 60,744 confortablement-chaud (approx.)
11440 15/07/2026 07:45 28.1 53.0 1,013.3 β†’ Stable 52,776 confortablement-chaud (approx.)
11439 15/07/2026 07:15 28.0 47.0 1,013.3 β†’ Stable 39,540 confortablement-chaud (approx.)
11438 15/07/2026 07:00 27.7 48.0 1,013.3 β†’ Stable 34,536 confortablement-chaud (approx.)
11437 15/07/2026 06:45 27.4 50.0 1,013.1 β†’ Stable 30,744 confortablement-chaud (approx.)
11436 15/07/2026 06:15 26.3 55.0 1,013.1 β†’ Stable 19,356 confortablement-chaud (approx.)
11435 15/07/2026 05:45 25.7 59.0 1,013.0 β†’ Stable 12,132 confortablement-chaud (approx.)
11434 15/07/2026 05:15 24.3 66.0 1,013.0 β†’ Stable 3,888 confortablement-chaud (approx.)
11433 15/07/2026 05:00 24.4 64.0 1,013.0 β†’ Stable 1,944 confortablement-chaud (approx.)
11432 15/07/2026 04:45 24.4 63.0 1,012.1 β†’ Stable 276 confortablement-chaud (approx.)
11431 15/07/2026 04:15 24.6 64.0 1,012.1 β†’ Stable 0 confortablement-chaud (approx.)
11430 15/07/2026 03:45 24.9 63.0 1,011.8 β†’ Stable 0 confortablement-chaud (approx.)
11429 15/07/2026 03:15 24.7 63.0 1,011.8 β†’ Stable 0 confortablement-chaud (approx.)
11428 15/07/2026 03:00 24.8 63.0 1,011.8 β†’ Stable 0 confortablement-chaud (approx.)
11427 15/07/2026 02:45 24.9 62.0 1,011.0 β†’ Stable 0 confortablement-chaud (approx.)
11426 15/07/2026 02:15 25.6 60.0 1,011.0 β†’ Stable 0 confortablement-chaud (approx.)
11425 15/07/2026 01:45 26.6 58.0 1,012.0 β†’ Stable 0 confortablement-chaud (approx.)
11424 15/07/2026 01:15 27.4 53.0 1,012.0 β†’ Stable 0 confortablement-chaud (approx.)
11423 15/07/2026 00:45 27.6 53.0 1,011.4 β†’ Stable 0 confortablement-chaud (approx.)
11422 15/07/2026 00:15 27.9 53.0 1,011.4 β†’ Stable 0 confortablement-chaud (approx.)
11421 14/07/2026 23:45 28.3 54.0 1,011.9 β†’ Stable 0 confortablement-chaud (approx.)
11420 14/07/2026 23:15 28.7 53.0 1,011.9 β†’ Stable 0 confortablement-chaud (approx.)
11419 14/07/2026 22:45 29.0 53.0 1,011.6 β†’ Stable 0 confortablement-chaud (approx.)
11418 14/07/2026 22:15 29.4 51.0 1,011.6 β†’ Stable 0 conditions-neutrales-ou-non-definies
11417 14/07/2026 21:45 29.7 50.0 1,011.3 β†’ Stable 0 conditions-neutrales-ou-non-definies
11416 14/07/2026 21:15 30.4 47.0 1,011.3 β†’ Stable 0 conditions-neutrales-ou-non-definies
11415 14/07/2026 20:45 31.0 44.0 1,010.8 β†’ Stable 0 conditions-neutrales-ou-non-definies
11414 14/07/2026 20:15 32.2 40.0 1,010.8 β†’ Stable 0 conditions-neutrales-ou-non-definies
11413 14/07/2026 19:45 33.2 38.0 1,010.6 β†’ Stable 648 chaleur-seche
11412 14/07/2026 19:15 34.6 33.0 1,010.6 β†’ Stable 7,224 chaleur-seche
11411 14/07/2026 18:45 35.4 32.0 1,010.6 β†’ Stable 15,180 chaleur-seche